Terminal Aerodrome Forecast
Issued by NWS Greer, SC

Home | Current Version | Previous Version | Text Only | Print | Product List | Glossary On
Versions: 1 2 3 4 5 6 7 8 9 10 11 12 13 14 15 16 17 18 19 20 21 22 23 24
000
FTUS42 KGSP 030702 AAB
TAFAVL
TAF AMD
KAVL 030702Z 0307/0406 VRB02KT P6SM FEW006 OVC060
      TEMPO 0307/0309 5SM -RA BR BKN002
     FM030900 34007KT P6SM VCSH OVC020
     FM031300 33009G16KT P6SM VCSH BKN045
      TEMPO 0314/0317 4SM -TSRA OVC025CB
     FM040000 34015KT P6SM OVC050=

USA.gov is the U.S. government's official web portal to all federal, state and local government web resources and services.